Pagrindinis puslapis
METAR-TAF:

METAR-TAF

Oro uostai :

Elsenborn

Bütgenbach, Belgija

platuma: 50-28N, ilguma: 006-11E, Aukštis: 564 m

Dabartinis oras

Ataskaita buvo paskelbta 40 minutes, ne 07:55 UTC
Vėjas 6 kt iš Pietvakarių
Temperatūra 7°C
Drėgmė 93%
Slėgis 996 hPa
Matomumas: 8000 m
lietus

METAR: EBLB 050755Z AUTO 23006KT 8000 -RA OVC005/// 07/06 Q0996 YLO

Laikas: 10:35 (08:35 UTC)


TAF: trūkstamas

Orai ataskaitas ir orų prognozės (METAR, TAF).

turimą stotys yra geltonos ir raudonos taškus žemėlapyje.

Perkelti pele per norėdami pamatyti stoties vardą.

Tada spustelėkite, norėdami matyti oro stebėjimo ir prognozės.

Norėdami pakeisti žemėlapį: spustelėkite ant žalios mygtukų su juodo kryžiaus žemyn,; žalią mygtuką su brūkšneliu, jei norite nutolinti; arba žalių rodyklių gretimoms žemėlapius.


METAR-TAF: